sensor_id;sensor_type;location;lat;lon;timestamp;pressure;altitude;pressure_sealevel;temperature;humidity
57990;BME280;58373;51.824;5.564;2022-08-01T00:02:27;101546.03;;;18.84;90.01
57990;BME280;58373;51.824;5.564;2022-08-01T00:04:54;101554.06;;;18.91;90.48
57990;BME280;58373;51.824;5.564;2022-08-01T00:07:19;101558.16;;;18.85;90.60
57990;BME280;58373;51.824;5.564;2022-08-01T00:09:44;101547.19;;;18.98;89.62
57990;BME280;58373;51.824;5.564;2022-08-01T00:12:10;101558.34;;;18.92;89.48
57990;BME280;58373;51.824;5.564;2022-08-01T00:14:35;101556.34;;;18.77;90.15
57990;BME280;58373;51.824;5.564;2022-08-01T00:17:01;101557.19;;;18.78;89.90
57990;BME280;58373;51.824;5.564;2022-08-01T00:19:26;101558.50;;;18.82;89.76
57990;BME280;58373;51.824;5.564;2022-08-01T00:21:52;101569.03;;;18.82;90.46
57990;BME280;58373;51.824;5.564;2022-08-01T00:24:17;101561.28;;;18.80;90.04
57990;BME280;58373;51.824;5.564;2022-08-01T00:26:42;101559.47;;;18.73;89.91
57990;BME280;58373;51.824;5.564;2022-08-01T00:29:08;101562.44;;;18.70;90.54
57990;BME280;58373;51.824;5.564;2022-08-01T00:31:33;101566.69;;;18.71;90.52
57990;BME280;58373;51.824;5.564;2022-08-01T00:33:58;101558.34;;;18.75;90.08
57990;BME280;58373;51.824;5.564;2022-08-01T00:36:24;101560.97;;;18.75;90.12
57990;BME280;58373;51.824;5.564;2022-08-01T00:38:49;101574.59;;;18.79;90.08
57990;BME280;58373;51.824;5.564;2022-08-01T00:41:15;101560.75;;;18.69;89.69
57990;BME280;58373;51.824;5.564;2022-08-01T00:43:40;101562.69;;;18.67;90.03
57990;BME280;58373;51.824;5.564;2022-08-01T00:46:06;101563.38;;;18.69;90.21
57990;BME280;58373;51.824;5.564;2022-08-01T00:48:31;101567.78;;;18.60;90.60
57990;BME280;58373;51.824;5.564;2022-08-01T00:50:57;101566.00;;;18.69;90.22
57990;BME280;58373;51.824;5.564;2022-08-01T00:53:22;101565.97;;;18.61;90.20
57990;BME280;58373;51.824;5.564;2022-08-01T00:55:48;101565.09;;;18.52;90.69
57990;BME280;58373;51.824;5.564;2022-08-01T00:58:13;101571.22;;;18.61;90.46
57990;BME280;58373;51.824;5.564;2022-08-01T01:00:39;101565.97;;;18.61;90.37
57990;BME280;58373;51.824;5.564;2022-08-01T01:03:05;101572.50;;;18.56;90.85
57990;BME280;58373;51.824;5.564;2022-08-01T01:05:36;101578.06;;;18.45;91.12
57990;BME280;58373;51.824;5.564;2022-08-01T01:08:14;101562.00;;;18.48;90.54
57990;BME280;58373;51.824;5.564;2022-08-01T01:13:29;101571.69;;;18.48;91.43
57990;BME280;58373;51.824;5.564;2022-08-01T01:16:04;101569.88;;;18.48;90.78
57990;BME280;58373;51.824;5.564;2022-08-01T01:18:36;101580.53;;;18.47;91.73
57990;BME280;58373;51.824;5.564;2022-08-01T01:26:49;101569.88;;;18.56;90.73
57990;BME280;58373;51.824;5.564;2022-08-01T01:29:23;101577.06;;;18.46;91.21
57990;BME280;58373;51.824;5.564;2022-08-01T01:32:18;101581.03;;;18.50;91.41
57990;BME280;58373;51.824;5.564;2022-08-01T01:34:48;101575.06;;;18.40;91.26
57990;BME280;58373;51.824;5.564;2022-08-01T01:37:17;101575.72;;;18.34;91.78
57990;BME280;58373;51.824;5.564;2022-08-01T01:39:44;101576.22;;;18.38;91.80
57990;BME280;58373;51.824;5.564;2022-08-01T01:42:12;101567.63;;;18.27;91.93
57990;BME280;58373;51.824;5.564;2022-08-01T01:44:39;101570.72;;;18.57;90.59
57990;BME280;58373;51.824;5.564;2022-08-01T01:47:06;101576.06;;;18.39;91.15
57990;BME280;58373;51.824;5.564;2022-08-01T01:49:33;101564.25;;;18.43;91.34
57990;BME280;58373;51.824;5.564;2022-08-01T01:52:00;101567.88;;;18.42;91.09
57990;BME280;58373;51.824;5.564;2022-08-01T01:54:37;101567.19;;;18.32;91.52
57990;BME280;58373;51.824;5.564;2022-08-01T01:57:05;101566.91;;;18.43;90.86
57990;BME280;58373;51.824;5.564;2022-08-01T01:59:33;101571.44;;;18.33;91.48
57990;BME280;58373;51.824;5.564;2022-08-01T02:02:02;101567.81;;;18.26;91.14
57990;BME280;58373;51.824;5.564;2022-08-01T02:04:29;101574.41;;;18.30;90.89
57990;BME280;58373;51.824;5.564;2022-08-01T02:06:55;101563.91;;;18.30;90.83
57990;BME280;58373;51.824;5.564;2022-08-01T02:09:23;101568.81;;;18.33;90.81
57990;BME280;58373;51.824;5.564;2022-08-01T02:11:51;101564.91;;;18.37;90.89
57990;BME280;58373;51.824;5.564;2022-08-01T02:14:18;101569.09;;;18.22;91.38
57990;BME280;58373;51.824;5.564;2022-08-01T02:16:47;101563.06;;;18.29;91.48
57990;BME280;58373;51.824;5.564;2022-08-01T02:19:13;101557.22;;;18.52;90.14
57990;BME280;58373;51.824;5.564;2022-08-01T02:24:13;101568.16;;;18.31;91.11
57990;BME280;58373;51.824;5.564;2022-08-01T02:26:44;101552.69;;;18.20;91.38
57990;BME280;58373;51.824;5.564;2022-08-01T02:29:16;101555.66;;;18.25;90.91
57990;BME280;58373;51.824;5.564;2022-08-01T02:31:45;101557.59;;;18.23;91.24
57990;BME280;58373;51.824;5.564;2022-08-01T02:34:16;101570.91;;;18.21;91.11
57990;BME280;58373;51.824;5.564;2022-08-01T02:36:43;101563.47;;;18.17;91.40
57990;BME280;58373;51.824;5.564;2022-08-01T02:39:13;101568.38;;;18.12;91.45
57990;BME280;58373;51.824;5.564;2022-08-01T02:41:45;101562.16;;;18.13;91.59
57990;BME280;58373;51.824;5.564;2022-08-01T02:44:21;101576.78;;;18.15;91.66
57990;BME280;58373;51.824;5.564;2022-08-01T02:46:54;101568.66;;;18.00;91.95
57990;BME280;58373;51.824;5.564;2022-08-01T02:49:22;101570.81;;;18.05;91.80
57990;BME280;58373;51.824;5.564;2022-08-01T02:51:49;101582.81;;;18.08;91.97
57990;BME280;58373;51.824;5.564;2022-08-01T02:54:18;101571.63;;;18.05;92.47
57990;BME280;58373;51.824;5.564;2022-08-01T02:56:47;101590.69;;;18.08;92.45
57990;BME280;58373;51.824;5.564;2022-08-01T02:59:15;101587.38;;;18.05;92.51
57990;BME280;58373;51.824;5.564;2022-08-01T03:01:42;101567.69;;;18.01;92.49
57990;BME280;58373;51.824;5.564;2022-08-01T03:04:11;101571.25;;;18.00;92.82
57990;BME280;58373;51.824;5.564;2022-08-01T03:06:37;101563.75;;;18.05;92.77
57990;BME280;58373;51.824;5.564;2022-08-01T03:09:04;101563.72;;;17.97;93.08
57990;BME280;58373;51.824;5.564;2022-08-01T03:11:33;101568.38;;;18.12;92.33
57990;BME280;58373;51.824;5.564;2022-08-01T03:14:02;101574.94;;;18.08;91.96
57990;BME280;58373;51.824;5.564;2022-08-01T03:16:31;101571.63;;;18.05;91.95
57990;BME280;58373;51.824;5.564;2022-08-01T03:19:00;101574.94;;;18.08;92.00
57990;BME280;58373;51.824;5.564;2022-08-01T03:21:27;101580.00;;;18.01;92.36
57990;BME280;58373;51.824;5.564;2022-08-01T03:23:55;101581.09;;;17.98;92.74
57990;BME280;58373;51.824;5.564;2022-08-01T03:26:26;101559.09;;;17.91;92.68
57990;BME280;58373;51.824;5.564;2022-08-01T03:28:55;101579.44;;;17.89;93.57
57990;BME280;58373;51.824;5.564;2022-08-01T03:31:22;101580.09;;;17.91;93.09
57990;BME280;58373;51.824;5.564;2022-08-01T03:33:49;101581.09;;;17.98;92.82
57990;BME280;58373;51.824;5.564;2022-08-01T03:36:14;101584.53;;;17.91;93.42
57990;BME280;58373;51.824;5.564;2022-08-01T03:38:42;101587.59;;;17.86;93.20
57990;BME280;58373;51.824;5.564;2022-08-01T03:41:16;101586.94;;;17.84;93.76
57990;BME280;58373;51.824;5.564;2022-08-01T03:43:47;101581.00;;;17.82;94.35
57990;BME280;58373;51.824;5.564;2022-08-01T03:46:19;101586.25;;;17.82;94.27
57990;BME280;58373;51.824;5.564;2022-08-01T03:48:48;101589.25;;;17.87;93.85
57990;BME280;58373;51.824;5.564;2022-08-01T03:51:16;101587.31;;;17.89;93.70
57990;BME280;58373;51.824;5.564;2022-08-01T03:53:44;101584.59;;;17.81;94.21
57990;BME280;58373;51.824;5.564;2022-08-01T03:56:12;101588.50;;;17.77;94.56
57990;BME280;58373;51.824;5.564;2022-08-01T03:58:41;101581.00;;;17.82;94.14
57990;BME280;58373;51.824;5.564;2022-08-01T04:01:07;101582.19;;;17.70;94.58
57990;BME280;58373;51.824;5.564;2022-08-01T04:03:34;101580.72;;;17.85;94.01
57990;BME280;58373;51.824;5.564;2022-08-01T04:06:04;101581.94;;;17.73;94.79
57990;BME280;58373;51.824;5.564;2022-08-01T04:08:37;101588.06;;;17.82;94.54
57990;BME280;58373;51.824;5.564;2022-08-01T04:11:03;101573.81;;;17.84;93.45
57990;BME280;58373;51.824;5.564;2022-08-01T04:13:30;101581.31;;;17.79;94.02
57990;BME280;58373;51.824;5.564;2022-08-01T04:15:56;101586.97;;;17.92;93.37
57990;BME280;58373;51.824;5.564;2022-08-01T04:18:21;101577.94;;;17.69;93.79
57990;BME280;58373;51.824;5.564;2022-08-01T04:20:47;101580.28;;;17.72;94.45
57990;BME280;58373;51.824;5.564;2022-08-01T04:23:14;101590.19;;;17.78;94.55
57990;BME280;58373;51.824;5.564;2022-08-01T04:25:40;101593.56;;;17.96;93.31
57990;BME280;58373;51.824;5.564;2022-08-01T04:28:10;101590.84;;;17.80;94.36
57990;BME280;58373;51.824;5.564;2022-08-01T04:30:42;101598.09;;;17.86;94.86
57990;BME280;58373;51.824;5.564;2022-08-01T04:33:09;101601.69;;;17.85;94.79
57990;BME280;58373;51.824;5.564;2022-08-01T04:35:38;101597.44;;;17.84;94.33
57990;BME280;58373;51.824;5.564;2022-08-01T04:38:07;101595.09;;;17.81;94.94
57990;BME280;58373;51.824;5.564;2022-08-01T04:40:34;101592.56;;;17.89;94.27
57990;BME280;58373;51.824;5.564;2022-08-01T04:43:02;101598.09;;;17.86;94.85
57990;BME280;58373;51.824;5.564;2022-08-01T04:45:28;101607.78;;;17.86;94.42
57990;BME280;58373;51.824;5.564;2022-08-01T04:47:54;101607.94;;;17.84;94.81
57990;BME280;58373;51.824;5.564;2022-08-01T04:50:20;101605.31;;;17.84;95.02
57990;BME280;58373;51.824;5.564;2022-08-01T04:52:47;101619.66;;;17.98;94.44
57990;BME280;58373;51.824;5.564;2022-08-01T04:55:12;101611.25;;;17.94;94.44
57990;BME280;58373;51.824;5.564;2022-08-01T04:57:41;101621.31;;;17.99;94.17
57990;BME280;58373;51.824;5.564;2022-08-01T05:00:08;101621.84;;;18.02;94.07
57990;BME280;58373;51.824;5.564;2022-08-01T05:02:35;101621.13;;;18.00;94.18
57990;BME280;58373;51.824;5.564;2022-08-01T05:05:01;101628.88;;;18.02;93.89
57990;BME280;58373;51.824;5.564;2022-08-01T05:07:26;101627.38;;;17.99;94.44
57990;BME280;58373;51.824;5.564;2022-08-01T05:09:52;101620.72;;;17.87;94.82
57990;BME280;58373;51.824;5.564;2022-08-01T05:12:17;101630.69;;;18.01;94.05
57990;BME280;58373;51.824;5.564;2022-08-01T05:14:43;101637.75;;;18.01;93.93
57990;BME280;58373;51.824;5.564;2022-08-01T05:17:09;101630.94;;;17.90;94.15
57990;BME280;58373;51.824;5.564;2022-08-01T05:19:37;101631.34;;;18.03;94.12
57990;BME280;58373;51.824;5.564;2022-08-01T05:22:04;101630.81;;;18.00;94.33
57990;BME280;58373;51.824;5.564;2022-08-01T05:24:31;101635.44;;;18.06;94.32
57990;BME280;58373;51.824;5.564;2022-08-01T05:26:57;101629.91;;;18.09;94.70
57990;BME280;58373;51.824;5.564;2022-08-01T05:29:23;101627.81;;;18.13;93.58
57990;BME280;58373;51.824;5.564;2022-08-01T05:31:49;101630.72;;;18.10;93.70
57990;BME280;58373;51.824;5.564;2022-08-01T05:34:15;101634.00;;;18.12;93.73
57990;BME280;58373;51.824;5.564;2022-08-01T05:36:41;101634.94;;;18.02;93.94
57990;BME280;58373;51.824;5.564;2022-08-01T05:39:07;101639.38;;;18.02;94.22
57990;BME280;58373;51.824;5.564;2022-08-01T05:41:32;101637.59;;;18.02;93.15
57990;BME280;58373;51.824;5.564;2022-08-01T05:43:57;101638.56;;;18.01;93.54
57990;BME280;58373;51.824;5.564;2022-08-01T05:46:23;101647.75;;;18.05;93.63
57990;BME280;58373;51.824;5.564;2022-08-01T05:48:48;101640.69;;;18.06;93.94
57990;BME280;58373;51.824;5.564;2022-08-01T05:51:13;101639.38;;;18.02;93.88
57990;BME280;58373;51.824;5.564;2022-08-01T05:53:39;101646.47;;;18.10;93.45
57990;BME280;58373;51.824;5.564;2022-08-01T05:56:04;101652.47;;;18.20;93.53
57990;BME280;58373;51.824;5.564;2022-08-01T05:58:30;101648.75;;;18.04;93.21
57990;BME280;58373;51.824;5.564;2022-08-01T06:00:55;101654.00;;;18.04;92.77
57990;BME280;58373;51.824;5.564;2022-08-01T06:03:21;101645.44;;;18.02;92.90
57990;BME280;58373;51.824;5.564;2022-08-01T06:05:46;101648.13;;;18.11;93.08
57990;BME280;58373;51.824;5.564;2022-08-01T06:08:11;101651.44;;;18.13;92.85
57990;BME280;58373;51.824;5.564;2022-08-01T06:10:37;101654.34;;;18.10;92.25
57990;BME280;58373;51.824;5.564;2022-08-01T06:13:02;101654.53;;;18.08;92.08
57990;BME280;58373;51.824;5.564;2022-08-01T06:15:31;101652.06;;;18.07;92.60
57990;BME280;58373;51.824;5.564;2022-08-01T06:17:57;101650.28;;;18.15;91.82
57990;BME280;58373;51.824;5.564;2022-08-01T06:20:23;101658.94;;;18.08;91.47
57990;BME280;58373;51.824;5.564;2022-08-01T06:22:48;101655.63;;;18.05;91.61
57990;BME280;58373;51.824;5.564;2022-08-01T06:25:13;101646.81;;;18.07;91.87
57990;BME280;58373;51.824;5.564;2022-08-01T06:27:39;101652.09;;;18.15;91.91
57990;BME280;58373;51.824;5.564;2022-08-01T06:30:05;101647.22;;;18.20;91.82
57990;BME280;58373;51.824;5.564;2022-08-01T06:32:32;101661.72;;;18.32;92.44
57990;BME280;58373;51.824;5.564;2022-08-01T06:34:58;101651.50;;;18.29;91.78
57990;BME280;58373;51.824;5.564;2022-08-01T06:37:24;101655.44;;;18.25;91.15
57990;BME280;58373;51.824;5.564;2022-08-01T06:39:53;101658.44;;;18.30;90.83
57990;BME280;58373;51.824;5.564;2022-08-01T06:42:18;101662.25;;;18.36;91.27
57990;BME280;58373;51.824;5.564;2022-08-01T06:44:44;101664.38;;;18.40;91.66
57990;BME280;58373;51.824;5.564;2022-08-01T06:47:09;101659.47;;;18.45;90.87
57990;BME280;58373;51.824;5.564;2022-08-01T06:49:35;101664.38;;;18.40;91.02
57990;BME280;58373;51.824;5.564;2022-08-01T06:52:00;101668.69;;;18.41;90.82
57990;BME280;58373;51.824;5.564;2022-08-01T06:54:25;101667.00;;;18.40;89.71
57990;BME280;58373;51.824;5.564;2022-08-01T06:56:51;101661.91;;;18.39;90.20
57990;BME280;58373;51.824;5.564;2022-08-01T06:59:16;101680.38;;;18.47;90.54
57990;BME280;58373;51.824;5.564;2022-08-01T07:01:41;101674.63;;;18.51;90.77
57990;BME280;58373;51.824;5.564;2022-08-01T07:04:07;101679.50;;;18.46;89.88
57990;BME280;58373;51.824;5.564;2022-08-01T07:06:32;101679.81;;;18.35;88.94
57990;BME280;58373;51.824;5.564;2022-08-01T07:08:57;101673.41;;;18.38;89.87
57990;BME280;58373;51.824;5.564;2022-08-01T07:11:23;101679.47;;;18.38;89.70
57990;BME280;58373;51.824;5.564;2022-08-01T07:13:49;101682.63;;;18.42;89.27
57990;BME280;58373;51.824;5.564;2022-08-01T07:16:15;101684.47;;;18.49;89.50
57990;BME280;58373;51.824;5.564;2022-08-01T07:18:41;101687.13;;;18.57;90.40
57990;BME280;58373;51.824;5.564;2022-08-01T07:21:06;101683.38;;;18.60;89.51
57990;BME280;58373;51.824;5.564;2022-08-01T07:23:32;101674.06;;;18.66;89.55
57990;BME280;58373;51.824;5.564;2022-08-01T07:25:57;101690.94;;;18.63;88.24
57990;BME280;58373;51.824;5.564;2022-08-01T07:28:24;101700.84;;;18.69;88.56
57990;BME280;58373;51.824;5.564;2022-08-01T07:30:49;101698.44;;;18.76;88.46
57990;BME280;58373;51.824;5.564;2022-08-01T07:33:14;101698.91;;;18.71;87.04
57990;BME280;58373;51.824;5.564;2022-08-01T07:35:40;101697.00;;;18.81;87.13
57990;BME280;58373;51.824;5.564;2022-08-01T07:38:08;101688.59;;;18.78;86.94
57990;BME280;58373;51.824;5.564;2022-08-01T07:40:34;101694.25;;;18.99;87.28
57990;BME280;58373;51.824;5.564;2022-08-01T07:42:59;101696.72;;;18.93;85.88
57990;BME280;58373;51.824;5.564;2022-08-01T07:45:25;101696.19;;;18.89;85.05
57990;BME280;58373;51.824;5.564;2022-08-01T07:47:51;101700.28;;;18.83;83.67
57990;BME280;58373;51.824;5.564;2022-08-01T07:50:17;101701.34;;;18.99;85.01
57990;BME280;58373;51.824;5.564;2022-08-01T07:52:42;101712.72;;;19.16;85.72
57990;BME280;58373;51.824;5.564;2022-08-01T07:55:09;101717.28;;;19.05;83.74
57990;BME280;58373;51.824;5.564;2022-08-01T07:57:35;101717.47;;;19.20;84.61
57990;BME280;58373;51.824;5.564;2022-08-01T08:00:02;101729.16;;;19.26;84.08
57990;BME280;58373;51.824;5.564;2022-08-01T08:02:28;101730.50;;;19.30;82.86
57990;BME280;58373;51.824;5.564;2022-08-01T08:04:53;101715.50;;;19.14;81.94
57990;BME280;58373;51.824;5.564;2022-08-01T08:07:19;101716.72;;;19.28;83.30
57990;BME280;58373;51.824;5.564;2022-08-01T08:09:44;101728.53;;;19.32;83.59
57990;BME280;58373;51.824;5.564;2022-08-01T08:12:09;101728.50;;;19.16;82.72
57990;BME280;58373;51.824;5.564;2022-08-01T08:14:35;101730.16;;;19.17;81.94
57990;BME280;58373;51.824;5.564;2022-08-01T08:17:00;101730.44;;;19.14;82.21
57990;BME280;58373;51.824;5.564;2022-08-01T08:19:26;101729.78;;;19.12;82.89
57990;BME280;58373;51.824;5.564;2022-08-01T08:21:51;101730.16;;;19.17;82.03
57990;BME280;58373;51.824;5.564;2022-08-01T08:24:16;101731.78;;;19.18;82.50
57990;BME280;58373;51.824;5.564;2022-08-01T08:26:46;101734.06;;;19.13;81.88
57990;BME280;58373;51.824;5.564;2022-08-01T08:29:11;101740.66;;;19.17;82.10
57990;BME280;58373;51.824;5.564;2022-08-01T08:31:37;101731.44;;;19.21;82.80
57990;BME280;58373;51.824;5.564;2022-08-01T08:34:02;101729.63;;;19.13;83.36
57990;BME280;58373;51.824;5.564;2022-08-01T08:36:28;101733.09;;;19.14;84.58
57990;BME280;58373;51.824;5.564;2022-08-01T08:38:53;101726.31;;;19.03;85.83
57990;BME280;58373;51.824;5.564;2022-08-01T08:41:20;101737.63;;;19.03;87.11
57990;BME280;58373;51.824;5.564;2022-08-01T08:43:45;101735.97;;;18.94;86.92
57990;BME280;58373;51.824;5.564;2022-08-01T08:46:11;101735.66;;;18.97;87.31
57990;BME280;58373;51.824;5.564;2022-08-01T08:48:40;101746.84;;;18.99;87.74
57990;BME280;58373;51.824;5.564;2022-08-01T08:51:06;101739.97;;;19.06;87.53
57990;BME280;58373;51.824;5.564;2022-08-01T08:53:35;101748.91;;;19.22;88.94
57990;BME280;58373;51.824;5.564;2022-08-01T08:56:02;101741.97;;;19.21;88.12
57990;BME280;58373;51.824;5.564;2022-08-01T08:58:28;101743.66;;;19.22;86.98
57990;BME280;58373;51.824;5.564;2022-08-01T09:00:54;101751.03;;;19.26;88.21
57990;BME280;58373;51.824;5.564;2022-08-01T09:03:20;101752.88;;;19.34;88.35
57990;BME280;58373;51.824;5.564;2022-08-01T09:05:45;101744.97;;;19.26;87.30
57990;BME280;58373;51.824;5.564;2022-08-01T09:08:11;101743.06;;;19.44;87.43
57990;BME280;58373;51.824;5.564;2022-08-01T09:10:37;101747.97;;;19.47;88.12
57990;BME280;58373;51.824;5.564;2022-08-01T09:13:11;101749.78;;;19.55;88.24
57990;BME280;58373;51.824;5.564;2022-08-01T09:15:48;101751.31;;;19.57;87.14
57990;BME280;58373;51.824;5.564;2022-08-01T09:18:38;101767.13;;;19.66;86.73
57990;BME280;58373;51.824;5.564;2022-08-01T09:23:36;101775.69;;;19.68;85.64
57990;BME280;58373;51.824;5.564;2022-08-01T09:26:15;101769.78;;;19.74;85.23
57990;BME280;58373;51.824;5.564;2022-08-01T09:28:41;101789.50;;;19.70;82.28
57990;BME280;58373;51.824;5.564;2022-08-01T09:31:27;101789.81;;;19.67;82.92
57990;BME280;58373;51.824;5.564;2022-08-01T09:33:58;101788.16;;;19.57;82.88
57990;BME280;58373;51.824;5.564;2022-08-01T09:36:25;101783.06;;;19.56;83.04
57990;BME280;58373;51.824;5.564;2022-08-01T09:38:53;101788.53;;;19.71;83.21
57990;BME280;58373;51.824;5.564;2022-08-01T09:41:30;101796.41;;;19.71;82.56
57990;BME280;58373;51.824;5.564;2022-08-01T09:43:58;101789.81;;;19.67;81.72
57990;BME280;58373;51.824;5.564;2022-08-01T09:46:24;101789.88;;;19.99;86.03
57990;BME280;58373;51.824;5.564;2022-08-01T09:49:04;101790.88;;;19.90;82.63
57990;BME280;58373;51.824;5.564;2022-08-01T09:51:33;101793.16;;;19.85;82.33
57990;BME280;58373;51.824;5.564;2022-08-01T09:53:59;101801.03;;;19.69;81.37
57990;BME280;58373;51.824;5.564;2022-08-01T09:56:25;101807.59;;;19.65;82.58
57990;BME280;58373;51.824;5.564;2022-08-01T09:58:56;101806.34;;;19.43;83.92
57990;BME280;58373;51.824;5.564;2022-08-01T10:01:22;101813.75;;;19.39;85.04
57990;BME280;58373;51.824;5.564;2022-08-01T10:04:04;101815.84;;;19.27;85.94
57990;BME280;58373;51.824;5.564;2022-08-01T10:06:30;101816.78;;;19.18;86.02
57990;BME280;58373;51.824;5.564;2022-08-01T10:08:55;101816.78;;;19.18;86.90
57990;BME280;58373;51.824;5.564;2022-08-01T10:11:21;101803.78;;;19.17;87.39
57990;BME280;58373;51.824;5.564;2022-08-01T10:13:48;101818.41;;;19.19;87.27
57990;BME280;58373;51.824;5.564;2022-08-01T10:16:14;101817.78;;;19.25;87.09
57990;BME280;58373;51.824;5.564;2022-08-01T10:18:41;101824.00;;;19.16;86.54
57990;BME280;58373;51.824;5.564;2022-08-01T10:21:08;101823.47;;;19.13;87.32
57990;BME280;58373;51.824;5.564;2022-08-01T10:23:34;101822.84;;;19.19;88.00
57990;BME280;58373;51.824;5.564;2022-08-01T10:26:01;101826.53;;;19.34;89.26
57990;BME280;58373;51.824;5.564;2022-08-01T10:28:30;101822.59;;;19.38;88.15
57990;BME280;58373;51.824;5.564;2022-08-01T10:30:56;101815.84;;;19.61;87.87
57990;BME280;58373;51.824;5.564;2022-08-01T10:33:23;101833.56;;;19.59;85.91
57990;BME280;58373;51.824;5.564;2022-08-01T10:35:48;101821.66;;;19.47;86.93
57990;BME280;58373;51.824;5.564;2022-08-01T10:38:15;101830.41;;;19.56;86.94
57990;BME280;58373;51.824;5.564;2022-08-01T10:40:44;101814.66;;;19.64;87.05
57990;BME280;58373;51.824;5.564;2022-08-01T10:43:10;101827.69;;;19.74;86.92
57990;BME280;58373;51.824;5.564;2022-08-01T10:45:36;101820.78;;;19.73;85.38
57990;BME280;58373;51.824;5.564;2022-08-01T10:51:02;101815.38;;;19.74;82.78
57990;BME280;58373;51.824;5.564;2022-08-01T10:53:29;101825.41;;;19.95;83.26
57990;BME280;58373;51.824;5.564;2022-08-01T10:55:58;101821.44;;;19.75;83.03
57990;BME280;58373;51.824;5.564;2022-08-01T10:58:29;101824.78;;;19.85;83.03
57990;BME280;58373;51.824;5.564;2022-08-01T11:03:38;101810.41;;;19.63;81.85
57990;BME280;58373;51.824;5.564;2022-08-01T11:06:04;101806.94;;;19.71;82.71
57990;BME280;58373;51.824;5.564;2022-08-01T11:08:30;101801.19;;;19.67;80.90
57990;BME280;58373;51.824;5.564;2022-08-01T11:11:02;101822.09;;;19.77;80.94
57990;BME280;58373;51.824;5.564;2022-08-01T11:16:27;101815.22;;;19.92;81.59
57990;BME280;58373;51.824;5.564;2022-08-01T11:18:53;101810.91;;;19.83;79.80
57990;BME280;58373;51.824;5.564;2022-08-01T11:21:19;101819.50;;;19.85;80.05
57990;BME280;58373;51.824;5.564;2022-08-01T11:23:50;101814.88;;;19.79;80.21
57990;BME280;58373;51.824;5.564;2022-08-01T11:26:19;101830.38;;;19.98;80.43
57990;BME280;58373;51.824;5.564;2022-08-01T11:29:09;101837.94;;;19.93;79.65
57990;BME280;58373;51.824;5.564;2022-08-01T11:31:34;101831.63;;;19.70;77.40
57990;BME280;58373;51.824;5.564;2022-08-01T11:33:59;101835.94;;;19.79;77.75
57990;BME280;58373;51.824;5.564;2022-08-01T11:36:25;101843.31;;;19.75;77.73
57990;BME280;58373;51.824;5.564;2022-08-01T11:41:27;101849.72;;;19.65;78.44
57990;BME280;58373;51.824;5.564;2022-08-01T11:44:08;101856.63;;;19.66;78.60
57990;BME280;58373;51.824;5.564;2022-08-01T11:52:10;101844.81;;;19.78;78.67
57990;BME280;58373;51.824;5.564;2022-08-01T11:54:38;101835.38;;;19.59;78.02
57990;BME280;58373;51.824;5.564;2022-08-01T11:57:09;101845.91;;;19.59;77.51
57990;BME280;58373;51.824;5.564;2022-08-01T11:59:43;101845.44;;;19.72;78.80
57990;BME280;58373;51.824;5.564;2022-08-01T12:02:27;101841.06;;;19.54;77.92
57990;BME280;58373;51.824;5.564;2022-08-01T12:05:05;101843.72;;;19.54;78.15
57990;BME280;58373;51.824;5.564;2022-08-01T12:07:32;101838.31;;;19.56;78.66
57990;BME280;58373;51.824;5.564;2022-08-01T12:10:13;101844.69;;;19.53;78.19
57990;BME280;58373;51.824;5.564;2022-08-01T12:12:47;101841.75;;;19.56;78.20
57990;BME280;58373;51.824;5.564;2022-08-01T12:15:14;101848.06;;;19.63;76.88
57990;BME280;58373;51.824;5.564;2022-08-01T12:17:42;101857.94;;;19.70;76.15
57990;BME280;58373;51.824;5.564;2022-08-01T12:20:11;101853.69;;;19.77;76.98
57990;BME280;58373;51.824;5.564;2022-08-01T12:22:37;101831.50;;;19.79;75.85
57990;BME280;58373;51.824;5.564;2022-08-01T12:25:10;101838.94;;;20.16;77.48
57990;BME280;58373;51.824;5.564;2022-08-01T12:27:38;101840.59;;;20.17;75.58
57990;BME280;58373;51.824;5.564;2022-08-01T12:30:06;101838.66;;;20.36;74.93
57990;BME280;58373;51.824;5.564;2022-08-01T12:32:34;101839.44;;;20.28;73.41
57990;BME280;58373;51.824;5.564;2022-08-01T12:35:09;101845.22;;;20.24;71.78
57990;BME280;58373;51.824;5.564;2022-08-01T12:37:40;101857.06;;;20.28;71.22
57990;BME280;58373;51.824;5.564;2022-08-01T12:40:26;101849.50;;;20.41;73.65
57990;BME280;58373;51.824;5.564;2022-08-01T12:42:55;101853.34;;;20.55;72.77
57990;BME280;58373;51.824;5.564;2022-08-01T12:45:24;101843.91;;;20.68;73.84
57990;BME280;58373;51.824;5.564;2022-08-01T12:47:51;101846.91;;;20.49;68.51
57990;BME280;58373;51.824;5.564;2022-08-01T12:50:19;101849.53;;;20.49;68.80
57990;BME280;58373;51.824;5.564;2022-08-01T12:52:45;101845.91;;;20.66;70.18
57990;BME280;58373;51.824;5.564;2022-08-01T12:55:19;101842.91;;;20.45;67.96
57990;BME280;58373;51.824;5.564;2022-08-01T12:57:46;101844.91;;;20.51;68.10
57990;BME280;58373;51.824;5.564;2022-08-01T13:02:41;101828.09;;;20.68;68.46
57990;BME280;58373;51.824;5.564;2022-08-01T13:05:07;101831.69;;;20.92;68.12
57990;BME280;58373;51.824;5.564;2022-08-01T13:07:36;101832.50;;;21.01;66.82
57990;BME280;58373;51.824;5.564;2022-08-01T13:10:02;101842.19;;;21.16;66.05
57990;BME280;58373;51.824;5.564;2022-08-01T13:12:28;101840.19;;;21.10;64.71
57990;BME280;58373;51.824;5.564;2022-08-01T13:14:53;101827.94;;;21.26;65.96
57990;BME280;58373;51.824;5.564;2022-08-01T13:17:34;101837.78;;;21.48;66.42
57990;BME280;58373;51.824;5.564;2022-08-01T13:20:05;101836.38;;;21.68;63.92
57990;BME280;58373;51.824;5.564;2022-08-01T13:22:37;101840.75;;;22.07;64.53
57990;BME280;58373;51.824;5.564;2022-08-01T13:25:13;101843.06;;;22.02;62.99
57990;BME280;58373;51.824;5.564;2022-08-01T13:27:40;101832.97;;;21.83;61.53